sensor_id;sensor_type;location;lat;lon;timestamp;P1;durP1;ratioP1;P2;durP2;ratioP2
30173;SDS011;16985;50.814;8.530;2023-02-11T00:00:37;65.47;;;30.92;;
30173;SDS011;16985;50.814;8.530;2023-02-11T00:03:05;65.05;;;29.40;;
30173;SDS011;16985;50.814;8.530;2023-02-11T00:05:31;71.10;;;33.38;;
30173;SDS011;16985;50.814;8.530;2023-02-11T00:07:56;72.38;;;31.58;;
30173;SDS011;16985;50.814;8.530;2023-02-11T00:10:22;72.10;;;32.88;;
30173;SDS011;16985;50.814;8.530;2023-02-11T00:12:49;74.65;;;31.48;;
30173;SDS011;16985;50.814;8.530;2023-02-11T00:15:15;69.30;;;32.38;;
30173;SDS011;16985;50.814;8.530;2023-02-11T00:17:45;67.28;;;31.90;;
30173;SDS011;16985;50.814;8.530;2023-02-11T00:20:13;82.95;;;32.38;;
30173;SDS011;16985;50.814;8.530;2023-02-11T00:22:39;64.15;;;30.00;;
30173;SDS011;16985;50.814;8.530;2023-02-11T00:25:05;69.57;;;32.25;;
30173;SDS011;16985;50.814;8.530;2023-02-11T00:27:31;74.05;;;33.17;;
30173;SDS011;16985;50.814;8.530;2023-02-11T00:29:57;60.20;;;31.30;;
30173;SDS011;16985;50.814;8.530;2023-02-11T00:32:24;65.60;;;29.38;;
30173;SDS011;16985;50.814;8.530;2023-02-11T00:34:51;61.72;;;31.23;;
30173;SDS011;16985;50.814;8.530;2023-02-11T00:39:45;61.40;;;30.92;;
30173;SDS011;16985;50.814;8.530;2023-02-11T00:42:13;63.05;;;29.55;;
30173;SDS011;16985;50.814;8.530;2023-02-11T00:44:39;70.93;;;31.83;;
30173;SDS011;16985;50.814;8.530;2023-02-11T00:47:05;64.13;;;29.60;;
30173;SDS011;16985;50.814;8.530;2023-02-11T00:49:31;66.57;;;29.55;;
30173;SDS011;16985;50.814;8.530;2023-02-11T00:51:56;63.75;;;32.22;;
30173;SDS011;16985;50.814;8.530;2023-02-11T00:54:22;73.95;;;31.00;;
30173;SDS011;16985;50.814;8.530;2023-02-11T00:56:48;69.63;;;32.45;;
30173;SDS011;16985;50.814;8.530;2023-02-11T00:59:15;65.90;;;31.83;;
30173;SDS011;16985;50.814;8.530;2023-02-11T01:01:42;68.20;;;32.80;;
30173;SDS011;16985;50.814;8.530;2023-02-11T01:04:11;67.20;;;32.13;;
30173;SDS011;16985;50.814;8.530;2023-02-11T01:06:37;74.22;;;32.28;;
30173;SDS011;16985;50.814;8.530;2023-02-11T01:09:04;77.82;;;34.17;;
30173;SDS011;16985;50.814;8.530;2023-02-11T01:11:30;70.15;;;32.70;;
30173;SDS011;16985;50.814;8.530;2023-02-11T01:13:56;73.25;;;32.28;;
30173;SDS011;16985;50.814;8.530;2023-02-11T01:16:22;77.35;;;32.78;;
30173;SDS011;16985;50.814;8.530;2023-02-11T01:18:48;68.97;;;31.45;;
30173;SDS011;16985;50.814;8.530;2023-02-11T01:21:15;72.78;;;33.58;;
30173;SDS011;16985;50.814;8.530;2023-02-11T01:23:42;79.20;;;35.22;;
30173;SDS011;16985;50.814;8.530;2023-02-11T01:26:10;69.15;;;35.05;;
30173;SDS011;16985;50.814;8.530;2023-02-11T01:28:36;68.07;;;33.42;;
30173;SDS011;16985;50.814;8.530;2023-02-11T01:31:02;63.92;;;30.95;;
30173;SDS011;16985;50.814;8.530;2023-02-11T01:33:28;75.32;;;33.80;;
30173;SDS011;16985;50.814;8.530;2023-02-11T01:35:54;68.40;;;32.72;;
30173;SDS011;16985;50.814;8.530;2023-02-11T01:38:24;74.20;;;34.55;;
30173;SDS011;16985;50.814;8.530;2023-02-11T01:40:55;75.15;;;33.67;;
30173;SDS011;16985;50.814;8.530;2023-02-11T01:43:24;72.38;;;32.58;;
30173;SDS011;16985;50.814;8.530;2023-02-11T01:45:55;65.00;;;32.17;;
30173;SDS011;16985;50.814;8.530;2023-02-11T01:48:36;70.25;;;33.17;;
30173;SDS011;16985;50.814;8.530;2023-02-11T01:51:12;69.07;;;31.40;;
30173;SDS011;16985;50.814;8.530;2023-02-11T01:53:44;64.45;;;30.65;;
30173;SDS011;16985;50.814;8.530;2023-02-11T01:56:30;62.83;;;31.15;;
30173;SDS011;16985;50.814;8.530;2023-02-11T01:59:21;59.38;;;28.90;;
30173;SDS011;16985;50.814;8.530;2023-02-11T02:02:13;67.15;;;30.40;;
30173;SDS011;16985;50.814;8.530;2023-02-11T02:04:52;72.13;;;34.05;;
30173;SDS011;16985;50.814;8.530;2023-02-11T02:07:31;68.72;;;31.85;;
30173;SDS011;16985;50.814;8.530;2023-02-11T02:10:11;55.63;;;30.63;;
30173;SDS011;16985;50.814;8.530;2023-02-11T02:12:41;65.18;;;31.13;;
30173;SDS011;16985;50.814;8.530;2023-02-11T02:15:17;61.35;;;31.40;;
30173;SDS011;16985;50.814;8.530;2023-02-11T02:18:01;67.07;;;29.80;;
30173;SDS011;16985;50.814;8.530;2023-02-11T02:33:01;67.70;;;31.08;;
30173;SDS011;16985;50.814;8.530;2023-02-11T02:41:18;67.57;;;32.28;;
30173;SDS011;16985;50.814;8.530;2023-02-11T02:43:48;55.15;;;27.98;;
30173;SDS011;16985;50.814;8.530;2023-02-11T02:46:26;61.83;;;28.83;;
30173;SDS011;16985;50.814;8.530;2023-02-11T02:48:58;57.47;;;28.83;;
30173;SDS011;16985;50.814;8.530;2023-02-11T02:57:53;56.15;;;28.85;;
30173;SDS011;16985;50.814;8.530;2023-02-11T03:00:40;60.70;;;32.10;;
30173;SDS011;16985;50.814;8.530;2023-02-11T03:03:48;61.65;;;30.40;;
30173;SDS011;16985;50.814;8.530;2023-02-11T03:06:28;58.53;;;29.38;;
30173;SDS011;16985;50.814;8.530;2023-02-11T03:09:43;54.25;;;27.27;;
30173;SDS011;16985;50.814;8.530;2023-02-11T03:12:25;58.13;;;29.75;;
30173;SDS011;16985;50.814;8.530;2023-02-11T03:14:54;60.17;;;29.88;;
30173;SDS011;16985;50.814;8.530;2023-02-11T03:17:20;62.03;;;30.45;;
30173;SDS011;16985;50.814;8.530;2023-02-11T03:19:50;64.28;;;29.17;;
30173;SDS011;16985;50.814;8.530;2023-02-11T03:22:19;63.55;;;31.83;;
30173;SDS011;16985;50.814;8.530;2023-02-11T03:24:49;69.70;;;30.40;;
30173;SDS011;16985;50.814;8.530;2023-02-11T03:27:20;62.72;;;31.85;;
30173;SDS011;16985;50.814;8.530;2023-02-11T03:29:58;60.25;;;33.08;;
30173;SDS011;16985;50.814;8.530;2023-02-11T03:32:37;67.80;;;31.63;;
30173;SDS011;16985;50.814;8.530;2023-02-11T03:35:10;62.90;;;31.52;;
30173;SDS011;16985;50.814;8.530;2023-02-11T03:40:47;57.65;;;31.20;;
30173;SDS011;16985;50.814;8.530;2023-02-11T03:43:15;61.67;;;32.65;;
30173;SDS011;16985;50.814;8.530;2023-02-11T03:45:47;62.78;;;30.23;;
30173;SDS011;16985;50.814;8.530;2023-02-11T03:50:48;60.92;;;29.05;;
30173;SDS011;16985;50.814;8.530;2023-02-11T03:53:15;61.85;;;31.55;;
30173;SDS011;16985;50.814;8.530;2023-02-11T03:55:43;63.17;;;30.98;;
30173;SDS011;16985;50.814;8.530;2023-02-11T03:58:11;62.25;;;31.40;;
30173;SDS011;16985;50.814;8.530;2023-02-11T04:00:38;58.20;;;31.90;;
30173;SDS011;16985;50.814;8.530;2023-02-11T04:03:07;50.45;;;26.90;;
30173;SDS011;16985;50.814;8.530;2023-02-11T04:05:34;57.80;;;29.75;;
30173;SDS011;16985;50.814;8.530;2023-02-11T04:08:00;60.72;;;30.17;;
30173;SDS011;16985;50.814;8.530;2023-02-11T04:10:27;59.20;;;30.50;;
30173;SDS011;16985;50.814;8.530;2023-02-11T04:12:55;63.65;;;29.25;;
30173;SDS011;16985;50.814;8.530;2023-02-11T04:15:21;54.15;;;29.63;;
30173;SDS011;16985;50.814;8.530;2023-02-11T04:17:48;52.97;;;29.17;;
30173;SDS011;16985;50.814;8.530;2023-02-11T04:20:14;60.78;;;27.27;;
30173;SDS011;16985;50.814;8.530;2023-02-11T04:22:40;60.38;;;29.23;;
30173;SDS011;16985;50.814;8.530;2023-02-11T04:25:06;57.47;;;29.45;;
30173;SDS011;16985;50.814;8.530;2023-02-11T04:27:33;62.78;;;33.28;;
30173;SDS011;16985;50.814;8.530;2023-02-11T04:29:59;57.85;;;31.25;;
30173;SDS011;16985;50.814;8.530;2023-02-11T04:32:25;59.28;;;30.98;;
30173;SDS011;16985;50.814;8.530;2023-02-11T04:34:51;54.78;;;29.63;;
30173;SDS011;16985;50.814;8.530;2023-02-11T04:37:18;63.03;;;30.15;;
30173;SDS011;16985;50.814;8.530;2023-02-11T04:39:44;55.80;;;31.23;;
30173;SDS011;16985;50.814;8.530;2023-02-11T04:42:10;63.25;;;31.55;;
30173;SDS011;16985;50.814;8.530;2023-02-11T04:44:36;65.32;;;32.55;;
30173;SDS011;16985;50.814;8.530;2023-02-11T04:47:02;62.92;;;31.85;;
30173;SDS011;16985;50.814;8.530;2023-02-11T04:49:27;56.55;;;30.20;;
30173;SDS011;16985;50.814;8.530;2023-02-11T04:51:53;58.03;;;30.25;;
30173;SDS011;16985;50.814;8.530;2023-02-11T04:54:19;59.05;;;32.10;;
30173;SDS011;16985;50.814;8.530;2023-02-11T04:56:46;52.42;;;28.95;;
30173;SDS011;16985;50.814;8.530;2023-02-11T04:59:12;63.80;;;32.67;;
30173;SDS011;16985;50.814;8.530;2023-02-11T05:01:38;54.53;;;29.90;;
30173;SDS011;16985;50.814;8.530;2023-02-11T05:04:04;68.10;;;32.72;;
30173;SDS011;16985;50.814;8.530;2023-02-11T05:06:30;62.88;;;32.50;;
30173;SDS011;16985;50.814;8.530;2023-02-11T05:08:56;62.03;;;31.92;;
30173;SDS011;16985;50.814;8.530;2023-02-11T05:11:22;59.20;;;30.65;;
30173;SDS011;16985;50.814;8.530;2023-02-11T05:13:49;64.15;;;31.20;;
30173;SDS011;16985;50.814;8.530;2023-02-11T05:16:16;60.03;;;32.15;;
30173;SDS011;16985;50.814;8.530;2023-02-11T05:18:42;66.55;;;32.65;;
30173;SDS011;16985;50.814;8.530;2023-02-11T05:21:13;73.13;;;32.22;;
30173;SDS011;16985;50.814;8.530;2023-02-11T05:23:41;69.80;;;32.72;;
30173;SDS011;16985;50.814;8.530;2023-02-11T05:26:08;66.38;;;33.33;;
30173;SDS011;16985;50.814;8.530;2023-02-11T05:28:34;66.90;;;31.88;;
30173;SDS011;16985;50.814;8.530;2023-02-11T05:31:01;62.53;;;33.83;;
30173;SDS011;16985;50.814;8.530;2023-02-11T05:33:27;68.53;;;33.15;;
30173;SDS011;16985;50.814;8.530;2023-02-11T05:36:26;64.63;;;34.75;;
30173;SDS011;16985;50.814;8.530;2023-02-11T05:38:45;61.97;;;34.08;;
30173;SDS011;16985;50.814;8.530;2023-02-11T05:41:11;69.32;;;33.40;;
30173;SDS011;16985;50.814;8.530;2023-02-11T05:43:36;65.90;;;34.00;;
30173;SDS011;16985;50.814;8.530;2023-02-11T05:46:03;69.28;;;35.20;;
30173;SDS011;16985;50.814;8.530;2023-02-11T05:48:29;67.78;;;34.08;;
30173;SDS011;16985;50.814;8.530;2023-02-11T05:50:56;74.90;;;34.50;;
30173;SDS011;16985;50.814;8.530;2023-02-11T05:53:22;65.70;;;33.83;;
30173;SDS011;16985;50.814;8.530;2023-02-11T05:55:48;63.03;;;33.92;;
30173;SDS011;16985;50.814;8.530;2023-02-11T05:58:13;73.03;;;35.05;;
30173;SDS011;16985;50.814;8.530;2023-02-11T06:00:39;69.30;;;34.50;;
30173;SDS011;16985;50.814;8.530;2023-02-11T06:03:05;70.97;;;36.30;;
30173;SDS011;16985;50.814;8.530;2023-02-11T06:05:32;63.53;;;33.83;;
30173;SDS011;16985;50.814;8.530;2023-02-11T06:07:58;61.97;;;35.40;;
30173;SDS011;16985;50.814;8.530;2023-02-11T06:10:23;68.43;;;33.10;;
30173;SDS011;16985;50.814;8.530;2023-02-11T06:12:50;66.38;;;33.78;;
30173;SDS011;16985;50.814;8.530;2023-02-11T06:15:15;70.25;;;35.17;;
30173;SDS011;16985;50.814;8.530;2023-02-11T06:17:41;74.60;;;36.55;;
30173;SDS011;16985;50.814;8.530;2023-02-11T06:20:07;69.50;;;33.83;;
30173;SDS011;16985;50.814;8.530;2023-02-11T06:22:34;65.28;;;33.40;;
30173;SDS011;16985;50.814;8.530;2023-02-11T06:25:00;66.63;;;34.83;;
30173;SDS011;16985;50.814;8.530;2023-02-11T06:27:26;73.65;;;33.80;;
30173;SDS011;16985;50.814;8.530;2023-02-11T06:29:52;69.78;;;34.95;;
30173;SDS011;16985;50.814;8.530;2023-02-11T06:32:18;65.03;;;33.72;;
30173;SDS011;16985;50.814;8.530;2023-02-11T06:34:44;59.22;;;32.63;;
30173;SDS011;16985;50.814;8.530;2023-02-11T06:37:10;62.85;;;32.35;;
30173;SDS011;16985;50.814;8.530;2023-02-11T06:39:36;73.85;;;33.53;;
30173;SDS011;16985;50.814;8.530;2023-02-11T06:42:02;69.10;;;35.40;;
30173;SDS011;16985;50.814;8.530;2023-02-11T06:44:28;76.03;;;31.15;;
30173;SDS011;16985;50.814;8.530;2023-02-11T06:46:53;66.95;;;31.90;;
30173;SDS011;16985;50.814;8.530;2023-02-11T06:49:19;63.28;;;32.03;;
30173;SDS011;16985;50.814;8.530;2023-02-11T06:51:45;63.60;;;32.33;;
30173;SDS011;16985;50.814;8.530;2023-02-11T06:54:11;63.15;;;32.30;;
30173;SDS011;16985;50.814;8.530;2023-02-11T06:56:38;69.30;;;32.28;;
30173;SDS011;16985;50.814;8.530;2023-02-11T07:01:31;64.40;;;31.58;;
30173;SDS011;16985;50.814;8.530;2023-02-11T07:03:57;69.00;;;31.15;;
30173;SDS011;16985;50.814;8.530;2023-02-11T07:06:24;68.63;;;32.72;;
30173;SDS011;16985;50.814;8.530;2023-02-11T07:08:52;56.15;;;30.08;;
30173;SDS011;16985;50.814;8.530;2023-02-11T07:11:20;64.07;;;32.22;;
30173;SDS011;16985;50.814;8.530;2023-02-11T07:13:52;66.03;;;34.33;;
30173;SDS011;16985;50.814;8.530;2023-02-11T07:16:21;65.30;;;32.60;;
30173;SDS011;16985;50.814;8.530;2023-02-11T07:18:47;63.60;;;32.78;;
30173;SDS011;16985;50.814;8.530;2023-02-11T07:21:17;74.03;;;32.92;;
30173;SDS011;16985;50.814;8.530;2023-02-11T07:23:45;67.72;;;34.65;;
30173;SDS011;16985;50.814;8.530;2023-02-11T07:26:13;78.60;;;35.92;;
30173;SDS011;16985;50.814;8.530;2023-02-11T07:28:44;70.03;;;32.67;;
30173;SDS011;16985;50.814;8.530;2023-02-11T07:31:12;65.03;;;31.65;;
30173;SDS011;16985;50.814;8.530;2023-02-11T07:33:48;75.68;;;32.40;;
30173;SDS011;16985;50.814;8.530;2023-02-11T07:36:14;71.38;;;32.92;;
30173;SDS011;16985;50.814;8.530;2023-02-11T07:38:41;75.32;;;34.25;;
30173;SDS011;16985;50.814;8.530;2023-02-11T07:41:11;69.28;;;31.75;;
30173;SDS011;16985;50.814;8.530;2023-02-11T07:43:39;72.93;;;32.35;;
30173;SDS011;16985;50.814;8.530;2023-02-11T07:46:08;64.15;;;30.40;;
30173;SDS011;16985;50.814;8.530;2023-02-11T07:48:40;54.78;;;29.17;;
30173;SDS011;16985;50.814;8.530;2023-02-11T07:53:37;55.17;;;28.90;;
30173;SDS011;16985;50.814;8.530;2023-02-11T07:56:03;57.35;;;28.95;;
30173;SDS011;16985;50.814;8.530;2023-02-11T07:58:31;51.83;;;27.00;;
30173;SDS011;16985;50.814;8.530;2023-02-11T08:01:01;59.50;;;28.33;;
30173;SDS011;16985;50.814;8.530;2023-02-11T08:03:32;43.40;;;24.85;;
30173;SDS011;16985;50.814;8.530;2023-02-11T08:06:02;48.67;;;27.10;;
30173;SDS011;16985;50.814;8.530;2023-02-11T08:08:48;46.28;;;24.67;;
30173;SDS011;16985;50.814;8.530;2023-02-11T08:11:23;50.72;;;26.50;;
30173;SDS011;16985;50.814;8.530;2023-02-11T08:13:51;55.95;;;26.95;;
30173;SDS011;16985;50.814;8.530;2023-02-11T08:18:52;46.45;;;24.50;;
30173;SDS011;16985;50.814;8.530;2023-02-11T08:21:22;45.97;;;24.83;;
30173;SDS011;16985;50.814;8.530;2023-02-11T08:23:48;47.55;;;24.17;;
30173;SDS011;16985;50.814;8.530;2023-02-11T08:26:15;41.25;;;24.02;;
30173;SDS011;16985;50.814;8.530;2023-02-11T08:28:50;36.65;;;21.92;;
30173;SDS011;16985;50.814;8.530;2023-02-11T08:31:22;43.03;;;23.92;;
30173;SDS011;16985;50.814;8.530;2023-02-11T08:33:51;42.38;;;22.02;;
30173;SDS011;16985;50.814;8.530;2023-02-11T08:36:19;35.75;;;21.08;;
30173;SDS011;16985;50.814;8.530;2023-02-11T08:38:48;36.72;;;21.73;;
30173;SDS011;16985;50.814;8.530;2023-02-11T08:41:14;30.77;;;18.75;;
30173;SDS011;16985;50.814;8.530;2023-02-11T08:43:42;31.92;;;18.55;;
30173;SDS011;16985;50.814;8.530;2023-02-11T08:46:11;28.25;;;18.13;;
30173;SDS011;16985;50.814;8.530;2023-02-11T08:48:43;30.42;;;17.27;;
30173;SDS011;16985;50.814;8.530;2023-02-11T08:51:17;28.40;;;18.75;;
30173;SDS011;16985;50.814;8.530;2023-02-11T08:53:47;27.47;;;16.67;;
30173;SDS011;16985;50.814;8.530;2023-02-11T08:56:14;32.03;;;17.17;;
30173;SDS011;16985;50.814;8.530;2023-02-11T08:58:42;30.20;;;18.00;;
30173;SDS011;16985;50.814;8.530;2023-02-11T09:01:12;27.13;;;16.05;;
30173;SDS011;16985;50.814;8.530;2023-02-11T09:03:41;31.52;;;17.25;;
30173;SDS011;16985;50.814;8.530;2023-02-11T09:06:08;25.40;;;15.93;;
30173;SDS011;16985;50.814;8.530;2023-02-11T09:08:35;25.77;;;17.30;;
30173;SDS011;16985;50.814;8.530;2023-02-11T09:11:02;23.27;;;14.98;;
30173;SDS011;16985;50.814;8.530;2023-02-11T09:13:29;23.95;;;16.23;;
30173;SDS011;16985;50.814;8.530;2023-02-11T09:15:56;22.65;;;15.48;;
30173;SDS011;16985;50.814;8.530;2023-02-11T09:18:24;23.52;;;15.10;;
30173;SDS011;16985;50.814;8.530;2023-02-11T09:20:50;23.67;;;14.90;;
30173;SDS011;16985;50.814;8.530;2023-02-11T09:23:16;22.45;;;14.02;;
30173;SDS011;16985;50.814;8.530;2023-02-11T09:25:42;22.13;;;13.73;;
30173;SDS011;16985;50.814;8.530;2023-02-11T09:28:08;21.85;;;14.38;;
30173;SDS011;16985;50.814;8.530;2023-02-11T09:30:37;26.33;;;15.13;;
30173;SDS011;16985;50.814;8.530;2023-02-11T09:33:02;21.73;;;13.60;;
30173;SDS011;16985;50.814;8.530;2023-02-11T09:35:28;22.40;;;13.80;;
30173;SDS011;16985;50.814;8.530;2023-02-11T09:37:54;21.63;;;13.18;;
30173;SDS011;16985;50.814;8.530;2023-02-11T09:40:20;21.70;;;13.68;;
30173;SDS011;16985;50.814;8.530;2023-02-11T09:42:49;18.30;;;11.88;;
30173;SDS011;16985;50.814;8.530;2023-02-11T09:45:28;20.98;;;13.43;;
30173;SDS011;16985;50.814;8.530;2023-02-11T09:47:59;20.45;;;13.13;;
30173;SDS011;16985;50.814;8.530;2023-02-11T09:50:34;17.20;;;12.98;;
30173;SDS011;16985;50.814;8.530;2023-02-11T09:53:16;18.30;;;12.55;;
30173;SDS011;16985;50.814;8.530;2023-02-11T09:55:56;19.52;;;13.18;;
30173;SDS011;16985;50.814;8.530;2023-02-11T09:58:33;17.63;;;11.77;;
30173;SDS011;16985;50.814;8.530;2023-02-11T10:04:06;18.60;;;11.88;;
30173;SDS011;16985;50.814;8.530;2023-02-11T10:07:06;23.33;;;13.10;;
30173;SDS011;16985;50.814;8.530;2023-02-11T10:18:09;19.60;;;11.93;;
30173;SDS011;16985;50.814;8.530;2023-02-11T10:23:44;20.23;;;12.98;;
30173;SDS011;16985;50.814;8.530;2023-02-11T10:26:16;21.42;;;13.60;;
30173;SDS011;16985;50.814;8.530;2023-02-11T10:28:45;21.75;;;13.93;;
30173;SDS011;16985;50.814;8.530;2023-02-11T10:31:23;19.55;;;12.70;;
30173;SDS011;16985;50.814;8.530;2023-02-11T10:33:58;21.10;;;13.20;;
30173;SDS011;16985;50.814;8.530;2023-02-11T10:36:29;18.33;;;11.45;;
30173;SDS011;16985;50.814;8.530;2023-02-11T10:39:19;20.10;;;11.95;;
30173;SDS011;16985;50.814;8.530;2023-02-11T10:44:31;19.50;;;11.25;;
30173;SDS011;16985;50.814;8.530;2023-02-11T10:47:03;18.50;;;12.02;;
30173;SDS011;16985;50.814;8.530;2023-02-11T10:49:46;18.90;;;11.57;;
30173;SDS011;16985;50.814;8.530;2023-02-11T10:55:05;20.60;;;12.55;;
30173;SDS011;16985;50.814;8.530;2023-02-11T10:57:39;21.00;;;13.35;;
30173;SDS011;16985;50.814;8.530;2023-02-11T11:00:32;20.33;;;12.18;;
30173;SDS011;16985;50.814;8.530;2023-02-11T11:03:06;20.02;;;13.13;;
30173;SDS011;16985;50.814;8.530;2023-02-11T11:05:47;22.65;;;12.93;;
30173;SDS011;16985;50.814;8.530;2023-02-11T11:08:19;20.73;;;13.30;;
30173;SDS011;16985;50.814;8.530;2023-02-11T11:10:46;22.20;;;13.27;;
30173;SDS011;16985;50.814;8.530;2023-02-11T11:13:31;22.65;;;13.52;;
30173;SDS011;16985;50.814;8.530;2023-02-11T11:16:07;20.92;;;13.18;;
30173;SDS011;16985;50.814;8.530;2023-02-11T11:18:36;21.08;;;13.13;;
30173;SDS011;16985;50.814;8.530;2023-02-11T11:21:18;20.35;;;12.40;;
30173;SDS011;16985;50.814;8.530;2023-02-11T11:23:53;21.85;;;13.85;;
30173;SDS011;16985;50.814;8.530;2023-02-11T11:26:24;21.85;;;13.18;;
30173;SDS011;16985;50.814;8.530;2023-02-11T11:29:00;23.50;;;14.18;;
30173;SDS011;16985;50.814;8.530;2023-02-11T11:32:12;22.85;;;13.95;;
30173;SDS011;16985;50.814;8.530;2023-02-11T11:34:43;22.65;;;13.60;;
30173;SDS011;16985;50.814;8.530;2023-02-11T11:37:25;22.63;;;13.30;;
30173;SDS011;16985;50.814;8.530;2023-02-11T11:40:37;22.33;;;13.32;;
30173;SDS011;16985;50.814;8.530;2023-02-11T11:43:06;25.25;;;14.30;;
30173;SDS011;16985;50.814;8.530;2023-02-11T11:45:38;25.88;;;15.65;;
30173;SDS011;16985;50.814;8.530;2023-02-11T11:48:31;26.40;;;14.90;;
30173;SDS011;16985;50.814;8.530;2023-02-11T11:51:03;27.27;;;14.43;;
30173;SDS011;16985;50.814;8.530;2023-02-11T11:53:35;27.90;;;14.32;;
30173;SDS011;16985;50.814;8.530;2023-02-11T11:56:25;27.73;;;15.27;;
30173;SDS011;16985;50.814;8.530;2023-02-11T11:58:55;27.23;;;14.93;;
30173;SDS011;16985;50.814;8.530;2023-02-11T12:15:40;30.40;;;16.48;;
30173;SDS011;16985;50.814;8.530;2023-02-11T12:18:29;31.23;;;15.10;;
30173;SDS011;16985;50.814;8.530;2023-02-11T12:21:19;28.73;;;15.15;;
30173;SDS011;16985;50.814;8.530;2023-02-11T12:44:55;31.50;;;16.42;;
30173;SDS011;16985;50.814;8.530;2023-02-11T12:50:10;34.42;;;17.27;;
30173;SDS011;16985;50.814;8.530;2023-02-11T12:56:00;28.58;;;16.90;;
30173;SDS011;16985;50.814;8.530;2023-02-11T12:58:53;27.48;;;15.98;;
30173;SDS011;16985;50.814;8.530;2023-02-11T13:03:58;32.70;;;16.85;;
30173;SDS011;16985;50.814;8.530;2023-02-11T13:06:36;28.17;;;15.40;;
30173;SDS011;16985;50.814;8.530;2023-02-11T13:09:12;30.58;;;16.60;;
30173;SDS011;16985;50.814;8.530;2023-02-11T13:11:46;30.83;;;17.20;;
30173;SDS011;16985;50.814;8.530;2023-02-11T13:14:20;29.50;;;16.75;;
30173;SDS011;16985;50.814;8.530;2023-02-11T13:16:53;41.53;;;19.50;;
30173;SDS011;16985;50.814;8.530;2023-02-11T13:19:24;33.10;;;18.77;;
30173;SDS011;16985;50.814;8.530;2023-02-11T13:28:09;34.15;;;17.60;;
30173;SDS011;16985;50.814;8.530;2023-02-11T13:31:00;32.13;;;17.30;;
30173;SDS011;16985;50.814;8.530;2023-02-11T13:38:27;35.00;;;17.40;;
30173;SDS011;16985;50.814;8.530;2023-02-11T13:41:02;34.95;;;16.35;;
30173;SDS011;16985;50.814;8.530;2023-02-11T13:43:41;30.40;;;16.48;;
30173;SDS011;16985;50.814;8.530;2023-02-11T13:46:11;29.23;;;15.45;;
30173;SDS011;16985;50.814;8.530;2023-02-11T13:48:46;28.10;;;15.63;;
30173;SDS011;16985;50.814;8.530;2023-02-11T13:51:15;33.17;;;17.65;;
30173;SDS011;16985;50.814;8.530;2023-02-11T13:53:59;27.45;;;15.15;;
30173;SDS011;16985;50.814;8.530;2023-02-11T13:59:00;29.25;;;16.05;;
30173;SDS011;16985;50.814;8.530;2023-02-11T14:02:08;32.55;;;17.02;;
30173;SDS011;16985;50.814;8.530;2023-02-11T14:08:15;29.80;;;15.13;;
30173;SDS011;16985;50.814;8.530;2023-02-11T14:14:00;29.42;;;16.33;;
30173;SDS011;16985;50.814;8.530;2023-02-11T14:17:31;31.02;;;17.23;;
30173;SDS011;16985;50.814;8.530;2023-02-11T14:19:44;31.55;;;17.33;;
30173;SDS011;16985;50.814;8.530;2023-02-11T14:22:12;30.05;;;15.90;;
30173;SDS011;16985;50.814;8.530;2023-02-11T14:27:47;29.38;;;16.25;;
30173;SDS011;16985;50.814;8.530;2023-02-11T14:30:50;31.15;;;16.50;;
30173;SDS011;16985;50.814;8.530;2023-02-11T14:33:37;29.42;;;16.45;;
30173;SDS011;16985;50.814;8.530;2023-02-11T14:39:16;30.77;;;16.88;;
30173;SDS011;16985;50.814;8.530;2023-02-11T14:42:02;36.15;;;17.52;;
30173;SDS011;16985;50.814;8.530;2023-02-11T14:44:29;31.15;;;16.83;;
30173;SDS011;16985;50.814;8.530;2023-02-11T14:49:27;30.05;;;16.08;;
30173;SDS011;16985;50.814;8.530;2023-02-11T14:52:07;34.95;;;17.98;;
30173;SDS011;16985;50.814;8.530;2023-02-11T14:54:49;32.22;;;16.73;;
30173;SDS011;16985;50.814;8.530;2023-02-11T14:57:17;34.35;;;17.02;;
30173;SDS011;16985;50.814;8.530;2023-02-11T14:59:57;37.50;;;17.52;;
30173;SDS011;16985;50.814;8.530;2023-02-11T15:02:36;35.35;;;17.95;;
30173;SDS011;16985;50.814;8.530;2023-02-11T15:05:22;30.48;;;15.98;;
30173;SDS011;16985;50.814;8.530;2023-02-11T15:08:11;35.83;;;18.77;;
30173;SDS011;16985;50.814;8.530;2023-02-11T15:10:42;32.17;;;17.48;;
30173;SDS011;16985;50.814;8.530;2023-02-11T15:13:12;31.67;;;17.58;;
30173;SDS011;16985;50.814;8.530;2023-02-11T15:15:44;33.72;;;18.00;;
30173;SDS011;16985;50.814;8.530;2023-02-11T15:18:15;32.92;;;17.10;;
30173;SDS011;16985;50.814;8.530;2023-02-11T15:20:47;34.92;;;17.25;;
30173;SDS011;16985;50.814;8.530;2023-02-11T15:23:17;30.48;;;17.38;;
30173;SDS011;16985;50.814;8.530;2023-02-11T15:25:50;33.67;;;18.13;;
30173;SDS011;16985;50.814;8.530;2023-02-11T15:28:21;32.42;;;17.33;;
30173;SDS011;16985;50.814;8.530;2023-02-11T15:30:57;29.27;;;16.50;;
30173;SDS011;16985;50.814;8.530;2023-02-11T15:33:29;36.22;;;18.10;;
30173;SDS011;16985;50.814;8.530;2023-02-11T15:36:00;35.35;;;18.65;;
30173;SDS011;16985;50.814;8.530;2023-02-11T15:38:27;32.90;;;17.45;;
30173;SDS011;16985;50.814;8.530;2023-02-11T15:40:57;33.75;;;18.27;;
30173;SDS011;16985;50.814;8.530;2023-02-11T15:46:15;32.80;;;17.15;;
30173;SDS011;16985;50.814;8.530;2023-02-11T15:48:46;33.88;;;17.80;;
30173;SDS011;16985;50.814;8.530;2023-02-11T15:51:20;35.67;;;19.42;;
30173;SDS011;16985;50.814;8.530;2023-02-11T15:54:07;34.05;;;17.58;;
30173;SDS011;16985;50.814;8.530;2023-02-11T15:56:49;32.78;;;18.67;;
30173;SDS011;16985;50.814;8.530;2023-02-11T15:59:52;34.55;;;17.67;;
30173;SDS011;16985;50.814;8.530;2023-02-11T16:02:15;36.58;;;19.90;;
30173;SDS011;16985;50.814;8.530;2023-02-11T16:04:52;41.03;;;20.90;;
30173;SDS011;16985;50.814;8.530;2023-02-11T16:07:38;39.90;;;20.92;;
30173;SDS011;16985;50.814;8.530;2023-02-11T16:10:22;43.05;;;20.88;;
30173;SDS011;16985;50.814;8.530;2023-02-11T16:18:11;40.90;;;20.50;;
30173;SDS011;16985;50.814;8.530;2023-02-11T16:21:03;36.83;;;18.73;;
30173;SDS011;16985;50.814;8.530;2023-02-11T16:23:33;45.15;;;21.75;;
30173;SDS011;16985;50.814;8.530;2023-02-11T16:26:02;38.20;;;20.25;;
30173;SDS011;16985;50.814;8.530;2023-02-11T16:28:37;43.17;;;20.85;;
30173;SDS011;16985;50.814;8.530;2023-02-11T16:31:04;38.92;;;19.88;;
30173;SDS011;16985;50.814;8.530;2023-02-11T16:33:30;39.22;;;21.23;;
30173;SDS011;16985;50.814;8.530;2023-02-11T16:35:56;45.08;;;21.15;;
30173;SDS011;16985;50.814;8.530;2023-02-11T16:38:26;40.88;;;20.98;;
30173;SDS011;16985;50.814;8.530;2023-02-11T16:40:52;41.38;;;20.55;;
30173;SDS011;16985;50.814;8.530;2023-02-11T16:43:18;43.45;;;21.35;;
30173;SDS011;16985;50.814;8.530;2023-02-11T16:45:44;42.03;;;21.17;;
30173;SDS011;16985;50.814;8.530;2023-02-11T16:48:12;39.80;;;21.65;;
30173;SDS011;16985;50.814;8.530;2023-02-11T16:50:43;36.53;;;20.88;;
30173;SDS011;16985;50.814;8.530;2023-02-11T16:53:13;39.47;;;20.20;;
30173;SDS011;16985;50.814;8.530;2023-02-11T16:55:47;40.65;;;21.17;;
30173;SDS011;16985;50.814;8.530;2023-02-11T16:58:16;43.22;;;21.83;;
30173;SDS011;16985;50.814;8.530;2023-02-11T17:00:42;43.53;;;23.27;;
30173;SDS011;16985;50.814;8.530;2023-02-11T17:03:13;39.50;;;21.45;;
30173;SDS011;16985;50.814;8.530;2023-02-11T17:05:46;44.88;;;21.33;;
30173;SDS011;16985;50.814;8.530;2023-02-11T17:08:12;40.33;;;20.52;;